sensor_id;sensor_type;location;lat;lon;timestamp;P1;durP1;ratioP1;P2;durP2;ratioP2
24145;SDS011;12308;50.948;4.706;2023-04-16T00:00:45;17.98;;;5.43;;
24145;SDS011;12308;50.948;4.706;2023-04-16T00:03:12;20.40;;;5.30;;
24145;SDS011;12308;50.948;4.706;2023-04-16T00:05:38;11.95;;;4.53;;
24145;SDS011;12308;50.948;4.706;2023-04-16T00:08:04;18.77;;;4.70;;
24145;SDS011;12308;50.948;4.706;2023-04-16T00:10:29;15.13;;;5.20;;
24145;SDS011;12308;50.948;4.706;2023-04-16T00:12:55;15.93;;;4.75;;
24145;SDS011;12308;50.948;4.706;2023-04-16T00:15:21;19.77;;;4.90;;
24145;SDS011;12308;50.948;4.706;2023-04-16T00:17:47;14.23;;;5.07;;
24145;SDS011;12308;50.948;4.706;2023-04-16T00:20:12;19.23;;;5.20;;
24145;SDS011;12308;50.948;4.706;2023-04-16T00:22:38;18.52;;;4.25;;
24145;SDS011;12308;50.948;4.706;2023-04-16T00:25:04;20.55;;;4.38;;
24145;SDS011;12308;50.948;4.706;2023-04-16T00:27:30;10.88;;;3.88;;
24145;SDS011;12308;50.948;4.706;2023-04-16T00:29:55;13.25;;;4.43;;
24145;SDS011;12308;50.948;4.706;2023-04-16T00:32:21;14.13;;;3.53;;
24145;SDS011;12308;50.948;4.706;2023-04-16T00:34:47;14.20;;;3.92;;
24145;SDS011;12308;50.948;4.706;2023-04-16T00:37:12;13.70;;;3.72;;
24145;SDS011;12308;50.948;4.706;2023-04-16T00:39:38;10.88;;;4.53;;
24145;SDS011;12308;50.948;4.706;2023-04-16T00:42:03;11.25;;;3.50;;
24145;SDS011;12308;50.948;4.706;2023-04-16T00:44:29;10.60;;;3.47;;
24145;SDS011;12308;50.948;4.706;2023-04-16T00:46:55;10.45;;;3.70;;
24145;SDS011;12308;50.948;4.706;2023-04-16T00:49:22;12.18;;;3.80;;
24145;SDS011;12308;50.948;4.706;2023-04-16T00:51:48;12.23;;;3.33;;
24145;SDS011;12308;50.948;4.706;2023-04-16T00:54:14;6.75;;;3.28;;
24145;SDS011;12308;50.948;4.706;2023-04-16T00:56:40;13.00;;;3.67;;
24145;SDS011;12308;50.948;4.706;2023-04-16T00:59:06;9.38;;;3.13;;
24145;SDS011;12308;50.948;4.706;2023-04-16T01:01:33;11.18;;;3.45;;
24145;SDS011;12308;50.948;4.706;2023-04-16T01:03:58;11.75;;;3.70;;
24145;SDS011;12308;50.948;4.706;2023-04-16T01:06:24;12.27;;;4.50;;
24145;SDS011;12308;50.948;4.706;2023-04-16T01:08:50;11.68;;;5.13;;
24145;SDS011;12308;50.948;4.706;2023-04-16T01:11:16;9.13;;;4.97;;
24145;SDS011;12308;50.948;4.706;2023-04-16T01:13:42;13.77;;;6.15;;
24145;SDS011;12308;50.948;4.706;2023-04-16T01:16:08;10.43;;;6.32;;
24145;SDS011;12308;50.948;4.706;2023-04-16T01:18:35;14.88;;;6.20;;
24145;SDS011;12308;50.948;4.706;2023-04-16T01:21:02;16.52;;;6.68;;
24145;SDS011;12308;50.948;4.706;2023-04-16T01:23:28;16.38;;;5.88;;
24145;SDS011;12308;50.948;4.706;2023-04-16T01:25:55;15.40;;;6.22;;
24145;SDS011;12308;50.948;4.706;2023-04-16T01:28:21;19.20;;;7.72;;
24145;SDS011;12308;50.948;4.706;2023-04-16T01:30:47;19.45;;;7.72;;
24145;SDS011;12308;50.948;4.706;2023-04-16T01:33:13;17.45;;;7.38;;
24145;SDS011;12308;50.948;4.706;2023-04-16T01:35:39;21.35;;;7.95;;
24145;SDS011;12308;50.948;4.706;2023-04-16T01:38:05;14.38;;;7.22;;
24145;SDS011;12308;50.948;4.706;2023-04-16T01:40:35;18.42;;;7.22;;
24145;SDS011;12308;50.948;4.706;2023-04-16T01:43:02;15.75;;;8.25;;
24145;SDS011;12308;50.948;4.706;2023-04-16T01:45:27;16.00;;;8.65;;
24145;SDS011;12308;50.948;4.706;2023-04-16T01:47:55;25.73;;;9.25;;
24145;SDS011;12308;50.948;4.706;2023-04-16T01:50:21;21.30;;;9.45;;
24145;SDS011;12308;50.948;4.706;2023-04-16T01:52:47;17.45;;;8.95;;
24145;SDS011;12308;50.948;4.706;2023-04-16T01:55:13;19.23;;;9.02;;
24145;SDS011;12308;50.948;4.706;2023-04-16T01:57:39;22.48;;;9.35;;
24145;SDS011;12308;50.948;4.706;2023-04-16T02:00:05;17.90;;;8.88;;
24145;SDS011;12308;50.948;4.706;2023-04-16T02:02:33;20.30;;;9.43;;
24145;SDS011;12308;50.948;4.706;2023-04-16T02:05:00;19.98;;;9.63;;
24145;SDS011;12308;50.948;4.706;2023-04-16T02:07:26;15.95;;;9.43;;
24145;SDS011;12308;50.948;4.706;2023-04-16T02:09:52;21.33;;;9.68;;
24145;SDS011;12308;50.948;4.706;2023-04-16T02:12:18;18.45;;;9.95;;
24145;SDS011;12308;50.948;4.706;2023-04-16T02:14:44;23.80;;;11.45;;
24145;SDS011;12308;50.948;4.706;2023-04-16T02:17:10;22.00;;;10.57;;
24145;SDS011;12308;50.948;4.706;2023-04-16T02:19:36;28.83;;;11.30;;
24145;SDS011;12308;50.948;4.706;2023-04-16T02:22:02;22.67;;;11.93;;
24145;SDS011;12308;50.948;4.706;2023-04-16T02:24:27;16.55;;;10.90;;
24145;SDS011;12308;50.948;4.706;2023-04-16T02:26:53;26.02;;;11.52;;
24145;SDS011;12308;50.948;4.706;2023-04-16T02:29:19;23.33;;;12.02;;
24145;SDS011;12308;50.948;4.706;2023-04-16T02:31:46;26.15;;;12.52;;
24145;SDS011;12308;50.948;4.706;2023-04-16T02:34:13;23.42;;;12.50;;
24145;SDS011;12308;50.948;4.706;2023-04-16T02:36:39;27.10;;;12.80;;
24145;SDS011;12308;50.948;4.706;2023-04-16T02:39:05;21.90;;;12.50;;
24145;SDS011;12308;50.948;4.706;2023-04-16T02:41:31;21.88;;;13.05;;
24145;SDS011;12308;50.948;4.706;2023-04-16T02:43:57;19.33;;;12.50;;
24145;SDS011;12308;50.948;4.706;2023-04-16T02:46:22;25.20;;;13.98;;
24145;SDS011;12308;50.948;4.706;2023-04-16T02:48:48;23.83;;;13.88;;
24145;SDS011;12308;50.948;4.706;2023-04-16T02:51:13;29.33;;;13.32;;
24145;SDS011;12308;50.948;4.706;2023-04-16T02:53:39;31.80;;;14.90;;
24145;SDS011;12308;50.948;4.706;2023-04-16T02:56:09;31.15;;;14.38;;
24145;SDS011;12308;50.948;4.706;2023-04-16T02:58:35;26.33;;;12.70;;
24145;SDS011;12308;50.948;4.706;2023-04-16T03:01:01;23.92;;;13.48;;
24145;SDS011;12308;50.948;4.706;2023-04-16T03:03:26;30.13;;;15.50;;
24145;SDS011;12308;50.948;4.706;2023-04-16T03:05:52;25.23;;;13.63;;
24145;SDS011;12308;50.948;4.706;2023-04-16T03:08:18;29.77;;;14.23;;
24145;SDS011;12308;50.948;4.706;2023-04-16T03:10:43;31.73;;;14.95;;
24145;SDS011;12308;50.948;4.706;2023-04-16T03:13:09;33.95;;;14.50;;
24145;SDS011;12308;50.948;4.706;2023-04-16T03:15:34;27.35;;;14.77;;
24145;SDS011;12308;50.948;4.706;2023-04-16T03:18:00;29.52;;;14.25;;
24145;SDS011;12308;50.948;4.706;2023-04-16T03:20:26;38.40;;;14.45;;
24145;SDS011;12308;50.948;4.706;2023-04-16T03:22:51;38.10;;;15.82;;
24145;SDS011;12308;50.948;4.706;2023-04-16T03:25:17;30.95;;;15.77;;
24145;SDS011;12308;50.948;4.706;2023-04-16T03:27:43;33.83;;;17.00;;
24145;SDS011;12308;50.948;4.706;2023-04-16T03:30:12;31.23;;;16.13;;
24145;SDS011;12308;50.948;4.706;2023-04-16T03:32:39;36.08;;;17.23;;
24145;SDS011;12308;50.948;4.706;2023-04-16T03:35:06;30.30;;;16.65;;
24145;SDS011;12308;50.948;4.706;2023-04-16T03:37:32;36.63;;;16.92;;
24145;SDS011;12308;50.948;4.706;2023-04-16T03:39:58;43.45;;;18.15;;
24145;SDS011;12308;50.948;4.706;2023-04-16T03:42:24;29.02;;;15.88;;
24145;SDS011;12308;50.948;4.706;2023-04-16T03:44:50;34.92;;;16.83;;
24145;SDS011;12308;50.948;4.706;2023-04-16T03:47:17;39.17;;;17.05;;
24145;SDS011;12308;50.948;4.706;2023-04-16T03:49:43;45.67;;;17.48;;
24145;SDS011;12308;50.948;4.706;2023-04-16T03:52:09;36.08;;;17.05;;
24145;SDS011;12308;50.948;4.706;2023-04-16T03:54:35;35.67;;;18.20;;
24145;SDS011;12308;50.948;4.706;2023-04-16T03:57:01;38.20;;;18.45;;
24145;SDS011;12308;50.948;4.706;2023-04-16T03:59:27;36.15;;;18.77;;
24145;SDS011;12308;50.948;4.706;2023-04-16T04:01:52;44.92;;;19.52;;
24145;SDS011;12308;50.948;4.706;2023-04-16T04:04:18;50.22;;;20.52;;
24145;SDS011;12308;50.948;4.706;2023-04-16T04:06:44;44.83;;;19.65;;
24145;SDS011;12308;50.948;4.706;2023-04-16T04:09:10;50.00;;;20.60;;
24145;SDS011;12308;50.948;4.706;2023-04-16T04:11:36;46.10;;;20.65;;
24145;SDS011;12308;50.948;4.706;2023-04-16T04:14:02;51.05;;;20.10;;
24145;SDS011;12308;50.948;4.706;2023-04-16T04:16:29;53.10;;;21.70;;
24145;SDS011;12308;50.948;4.706;2023-04-16T04:18:55;51.15;;;20.33;;
24145;SDS011;12308;50.948;4.706;2023-04-16T04:21:21;46.20;;;22.25;;
24145;SDS011;12308;50.948;4.706;2023-04-16T04:23:47;47.70;;;20.73;;
24145;SDS011;12308;50.948;4.706;2023-04-16T04:26:12;38.72;;;20.05;;
24145;SDS011;12308;50.948;4.706;2023-04-16T04:28:38;46.13;;;20.88;;
24145;SDS011;12308;50.948;4.706;2023-04-16T04:31:04;50.17;;;22.88;;
24145;SDS011;12308;50.948;4.706;2023-04-16T04:33:29;38.13;;;19.95;;
24145;SDS011;12308;50.948;4.706;2023-04-16T04:35:55;48.25;;;19.92;;
24145;SDS011;12308;50.948;4.706;2023-04-16T04:38:21;46.88;;;21.45;;
24145;SDS011;12308;50.948;4.706;2023-04-16T04:40:51;42.05;;;20.52;;
24145;SDS011;12308;50.948;4.706;2023-04-16T04:43:18;46.80;;;20.75;;
24145;SDS011;12308;50.948;4.706;2023-04-16T04:45:47;53.33;;;21.55;;
24145;SDS011;12308;50.948;4.706;2023-04-16T04:48:13;39.80;;;19.73;;
24145;SDS011;12308;50.948;4.706;2023-04-16T04:50:40;44.70;;;20.08;;
24145;SDS011;12308;50.948;4.706;2023-04-16T04:53:06;55.30;;;22.42;;
24145;SDS011;12308;50.948;4.706;2023-04-16T04:55:37;48.03;;;21.20;;
24145;SDS011;12308;50.948;4.706;2023-04-16T04:58:03;51.38;;;23.15;;
24145;SDS011;12308;50.948;4.706;2023-04-16T05:00:30;53.47;;;24.27;;
24145;SDS011;12308;50.948;4.706;2023-04-16T05:02:56;58.60;;;24.73;;
24145;SDS011;12308;50.948;4.706;2023-04-16T05:05:22;55.17;;;23.83;;
24145;SDS011;12308;50.948;4.706;2023-04-16T05:07:48;62.70;;;24.98;;
24145;SDS011;12308;50.948;4.706;2023-04-16T05:10:14;52.78;;;26.00;;
24145;SDS011;12308;50.948;4.706;2023-04-16T05:12:40;53.17;;;24.98;;
24145;SDS011;12308;50.948;4.706;2023-04-16T05:15:05;46.53;;;22.27;;
24145;SDS011;12308;50.948;4.706;2023-04-16T05:17:32;48.55;;;23.23;;
24145;SDS011;12308;50.948;4.706;2023-04-16T05:19:57;46.92;;;22.05;;
24145;SDS011;12308;50.948;4.706;2023-04-16T05:22:24;56.58;;;22.85;;
24145;SDS011;12308;50.948;4.706;2023-04-16T05:24:49;40.45;;;21.60;;
24145;SDS011;12308;50.948;4.706;2023-04-16T05:27:15;52.67;;;24.17;;
24145;SDS011;12308;50.948;4.706;2023-04-16T05:29:41;56.05;;;25.20;;
24145;SDS011;12308;50.948;4.706;2023-04-16T05:32:06;54.92;;;24.05;;
24145;SDS011;12308;50.948;4.706;2023-04-16T05:34:32;55.85;;;23.98;;
24145;SDS011;12308;50.948;4.706;2023-04-16T05:36:58;51.70;;;22.33;;
24145;SDS011;12308;50.948;4.706;2023-04-16T05:39:24;56.35;;;24.02;;
24145;SDS011;12308;50.948;4.706;2023-04-16T05:41:51;56.10;;;24.52;;
24145;SDS011;12308;50.948;4.706;2023-04-16T05:44:16;56.33;;;24.08;;
24145;SDS011;12308;50.948;4.706;2023-04-16T05:46:42;57.88;;;23.98;;
24145;SDS011;12308;50.948;4.706;2023-04-16T05:49:08;47.15;;;20.77;;
24145;SDS011;12308;50.948;4.706;2023-04-16T05:51:34;54.05;;;22.50;;
24145;SDS011;12308;50.948;4.706;2023-04-16T05:54:00;44.67;;;22.13;;
24145;SDS011;12308;50.948;4.706;2023-04-16T05:56:26;57.80;;;21.23;;
24145;SDS011;12308;50.948;4.706;2023-04-16T05:58:51;50.28;;;22.83;;
24145;SDS011;12308;50.948;4.706;2023-04-16T06:01:17;54.67;;;24.60;;
24145;SDS011;12308;50.948;4.706;2023-04-16T06:03:42;55.90;;;22.85;;
24145;SDS011;12308;50.948;4.706;2023-04-16T06:06:09;50.50;;;23.13;;
24145;SDS011;12308;50.948;4.706;2023-04-16T06:08:35;49.75;;;21.90;;
24145;SDS011;12308;50.948;4.706;2023-04-16T06:11:00;45.63;;;21.90;;
24145;SDS011;12308;50.948;4.706;2023-04-16T06:13:27;43.95;;;21.77;;
24145;SDS011;12308;50.948;4.706;2023-04-16T06:15:52;58.75;;;21.67;;
24145;SDS011;12308;50.948;4.706;2023-04-16T06:18:18;56.25;;;24.17;;
24145;SDS011;12308;50.948;4.706;2023-04-16T06:20:44;47.30;;;19.23;;
24145;SDS011;12308;50.948;4.706;2023-04-16T06:23:09;42.53;;;19.88;;
24145;SDS011;12308;50.948;4.706;2023-04-16T06:25:35;43.42;;;19.83;;
24145;SDS011;12308;50.948;4.706;2023-04-16T06:28:01;41.75;;;20.50;;
24145;SDS011;12308;50.948;4.706;2023-04-16T06:30:26;48.53;;;20.95;;
24145;SDS011;12308;50.948;4.706;2023-04-16T06:32:52;45.78;;;18.65;;
24145;SDS011;12308;50.948;4.706;2023-04-16T06:35:17;47.38;;;18.25;;
24145;SDS011;12308;50.948;4.706;2023-04-16T06:37:44;46.33;;;21.10;;
24145;SDS011;12308;50.948;4.706;2023-04-16T06:40:10;47.03;;;22.35;;
24145;SDS011;12308;50.948;4.706;2023-04-16T06:42:36;47.30;;;20.65;;
24145;SDS011;12308;50.948;4.706;2023-04-16T06:45:02;50.88;;;22.70;;
24145;SDS011;12308;50.948;4.706;2023-04-16T06:47:28;50.95;;;23.52;;
24145;SDS011;12308;50.948;4.706;2023-04-16T06:49:54;43.38;;;22.10;;
24145;SDS011;12308;50.948;4.706;2023-04-16T06:52:19;51.45;;;22.67;;
24145;SDS011;12308;50.948;4.706;2023-04-16T06:54:46;53.45;;;23.58;;
24145;SDS011;12308;50.948;4.706;2023-04-16T06:57:12;51.25;;;22.45;;
24145;SDS011;12308;50.948;4.706;2023-04-16T06:59:38;47.78;;;23.35;;
24145;SDS011;12308;50.948;4.706;2023-04-16T07:02:03;49.60;;;22.73;;
24145;SDS011;12308;50.948;4.706;2023-04-16T07:04:29;43.45;;;21.50;;
24145;SDS011;12308;50.948;4.706;2023-04-16T07:06:55;53.38;;;22.73;;
24145;SDS011;12308;50.948;4.706;2023-04-16T07:09:20;49.90;;;22.13;;
24145;SDS011;12308;50.948;4.706;2023-04-16T07:11:46;51.88;;;24.75;;
24145;SDS011;12308;50.948;4.706;2023-04-16T07:14:12;47.22;;;23.35;;
24145;SDS011;12308;50.948;4.706;2023-04-16T07:16:37;49.47;;;23.17;;
24145;SDS011;12308;50.948;4.706;2023-04-16T07:19:04;42.58;;;20.27;;
24145;SDS011;12308;50.948;4.706;2023-04-16T07:21:29;55.67;;;23.58;;
24145;SDS011;12308;50.948;4.706;2023-04-16T07:23:55;47.45;;;22.40;;
24145;SDS011;12308;50.948;4.706;2023-04-16T07:26:21;46.17;;;22.25;;
24145;SDS011;12308;50.948;4.706;2023-04-16T07:28:47;46.67;;;22.10;;
24145;SDS011;12308;50.948;4.706;2023-04-16T07:31:12;45.78;;;22.52;;
24145;SDS011;12308;50.948;4.706;2023-04-16T07:33:38;47.67;;;23.42;;
24145;SDS011;12308;50.948;4.706;2023-04-16T07:36:04;49.13;;;23.73;;
24145;SDS011;12308;50.948;4.706;2023-04-16T07:38:29;50.53;;;22.25;;
24145;SDS011;12308;50.948;4.706;2023-04-16T07:40:55;51.13;;;24.35;;
24145;SDS011;12308;50.948;4.706;2023-04-16T07:43:21;45.45;;;21.02;;
24145;SDS011;12308;50.948;4.706;2023-04-16T07:45:46;44.08;;;21.42;;
24145;SDS011;12308;50.948;4.706;2023-04-16T07:48:12;46.65;;;21.85;;
24145;SDS011;12308;50.948;4.706;2023-04-16T07:50:37;46.15;;;20.48;;
24145;SDS011;12308;50.948;4.706;2023-04-16T07:53:03;40.75;;;20.98;;
24145;SDS011;12308;50.948;4.706;2023-04-16T07:55:31;48.67;;;22.52;;
24145;SDS011;12308;50.948;4.706;2023-04-16T07:57:57;51.75;;;24.25;;
24145;SDS011;12308;50.948;4.706;2023-04-16T08:00:22;47.78;;;22.95;;
24145;SDS011;12308;50.948;4.706;2023-04-16T08:02:48;45.05;;;20.73;;
24145;SDS011;12308;50.948;4.706;2023-04-16T08:05:14;45.92;;;22.10;;
24145;SDS011;12308;50.948;4.706;2023-04-16T08:07:39;53.60;;;23.20;;
24145;SDS011;12308;50.948;4.706;2023-04-16T08:10:05;46.63;;;22.50;;
24145;SDS011;12308;50.948;4.706;2023-04-16T08:12:31;52.03;;;23.33;;
24145;SDS011;12308;50.948;4.706;2023-04-16T08:14:57;48.53;;;21.38;;
24145;SDS011;12308;50.948;4.706;2023-04-16T08:17:23;47.67;;;22.42;;
24145;SDS011;12308;50.948;4.706;2023-04-16T08:19:48;51.95;;;24.42;;
24145;SDS011;12308;50.948;4.706;2023-04-16T08:22:14;53.42;;;24.45;;
24145;SDS011;12308;50.948;4.706;2023-04-16T08:24:40;58.13;;;25.90;;
24145;SDS011;12308;50.948;4.706;2023-04-16T08:27:05;50.65;;;24.67;;
24145;SDS011;12308;50.948;4.706;2023-04-16T08:29:31;49.47;;;24.50;;
24145;SDS011;12308;50.948;4.706;2023-04-16T08:31:57;59.22;;;26.25;;
24145;SDS011;12308;50.948;4.706;2023-04-16T08:34:23;61.97;;;27.40;;
24145;SDS011;12308;50.948;4.706;2023-04-16T08:36:50;52.95;;;27.13;;
24145;SDS011;12308;50.948;4.706;2023-04-16T08:39:16;46.13;;;23.23;;
24145;SDS011;12308;50.948;4.706;2023-04-16T08:41:42;56.22;;;26.35;;
24145;SDS011;12308;50.948;4.706;2023-04-16T08:44:11;62.15;;;26.45;;
24145;SDS011;12308;50.948;4.706;2023-04-16T08:46:43;53.95;;;26.85;;
24145;SDS011;12308;50.948;4.706;2023-04-16T08:49:10;63.97;;;24.10;;
24145;SDS011;12308;50.948;4.706;2023-04-16T08:51:47;55.92;;;26.98;;
24145;SDS011;12308;50.948;4.706;2023-04-16T08:54:18;63.35;;;26.67;;
24145;SDS011;12308;50.948;4.706;2023-04-16T08:56:48;55.10;;;27.02;;
24145;SDS011;12308;50.948;4.706;2023-04-16T08:59:15;68.07;;;27.15;;
24145;SDS011;12308;50.948;4.706;2023-04-16T09:01:41;64.40;;;27.80;;
24145;SDS011;12308;50.948;4.706;2023-04-16T09:04:07;77.43;;;30.23;;
24145;SDS011;12308;50.948;4.706;2023-04-16T09:06:33;64.50;;;29.52;;
24145;SDS011;12308;50.948;4.706;2023-04-16T09:09:00;71.18;;;29.50;;
24145;SDS011;12308;50.948;4.706;2023-04-16T09:11:28;73.75;;;30.52;;
24145;SDS011;12308;50.948;4.706;2023-04-16T09:13:54;62.30;;;29.42;;
24145;SDS011;12308;50.948;4.706;2023-04-16T09:16:21;65.00;;;29.35;;
24145;SDS011;12308;50.948;4.706;2023-04-16T09:18:48;73.40;;;30.80;;
24145;SDS011;12308;50.948;4.706;2023-04-16T09:21:15;75.60;;;30.58;;
24145;SDS011;12308;50.948;4.706;2023-04-16T09:23:42;81.75;;;32.55;;
24145;SDS011;12308;50.948;4.706;2023-04-16T09:26:09;80.03;;;31.85;;
24145;SDS011;12308;50.948;4.706;2023-04-16T09:28:41;69.43;;;31.58;;
24145;SDS011;12308;50.948;4.706;2023-04-16T09:31:12;74.53;;;32.00;;
24145;SDS011;12308;50.948;4.706;2023-04-16T09:33:39;86.27;;;33.33;;
24145;SDS011;12308;50.948;4.706;2023-04-16T09:36:06;70.80;;;33.05;;
24145;SDS011;12308;50.948;4.706;2023-04-16T09:38:48;64.82;;;33.28;;
24145;SDS011;12308;50.948;4.706;2023-04-16T09:41:16;83.97;;;33.47;;
24145;SDS011;12308;50.948;4.706;2023-04-16T09:43:52;64.20;;;31.13;;
24145;SDS011;12308;50.948;4.706;2023-04-16T09:46:20;73.82;;;31.75;;
24145;SDS011;12308;50.948;4.706;2023-04-16T09:48:45;81.63;;;34.70;;
24145;SDS011;12308;50.948;4.706;2023-04-16T09:51:11;78.65;;;34.47;;
24145;SDS011;12308;50.948;4.706;2023-04-16T09:53:37;86.05;;;34.28;;
24145;SDS011;12308;50.948;4.706;2023-04-16T09:56:04;80.90;;;34.47;;
24145;SDS011;12308;50.948;4.706;2023-04-16T09:58:30;81.30;;;33.28;;
24145;SDS011;12308;50.948;4.706;2023-04-16T10:01:07;73.35;;;32.33;;
24145;SDS011;12308;50.948;4.706;2023-04-16T10:03:35;67.65;;;33.47;;
24145;SDS011;12308;50.948;4.706;2023-04-16T10:06:14;78.78;;;33.83;;
24145;SDS011;12308;50.948;4.706;2023-04-16T10:08:43;89.80;;;36.08;;
24145;SDS011;12308;50.948;4.706;2023-04-16T10:11:11;77.05;;;33.78;;
24145;SDS011;12308;50.948;4.706;2023-04-16T10:13:38;75.13;;;33.63;;
24145;SDS011;12308;50.948;4.706;2023-04-16T10:16:03;68.97;;;31.67;;
24145;SDS011;12308;50.948;4.706;2023-04-16T10:18:30;73.43;;;32.67;;
24145;SDS011;12308;50.948;4.706;2023-04-16T10:20:56;63.97;;;30.92;;
24145;SDS011;12308;50.948;4.706;2023-04-16T10:23:22;71.32;;;29.10;;
24145;SDS011;12308;50.948;4.706;2023-04-16T10:25:48;80.40;;;32.70;;
24145;SDS011;12308;50.948;4.706;2023-04-16T10:28:14;74.55;;;33.60;;
24145;SDS011;12308;50.948;4.706;2023-04-16T10:30:42;73.70;;;33.15;;
24145;SDS011;12308;50.948;4.706;2023-04-16T10:33:21;80.25;;;31.85;;
24145;SDS011;12308;50.948;4.706;2023-04-16T10:35:49;66.75;;;30.13;;
24145;SDS011;12308;50.948;4.706;2023-04-16T10:38:30;79.32;;;30.52;;
24145;SDS011;12308;50.948;4.706;2023-04-16T10:41:03;65.90;;;29.15;;
24145;SDS011;12308;50.948;4.706;2023-04-16T10:43:30;65.13;;;29.38;;
24145;SDS011;12308;50.948;4.706;2023-04-16T10:46:00;65.82;;;27.48;;
24145;SDS011;12308;50.948;4.706;2023-04-16T10:48:42;61.85;;;29.40;;
24145;SDS011;12308;50.948;4.706;2023-04-16T10:51:07;62.95;;;27.85;;
24145;SDS011;12308;50.948;4.706;2023-04-16T10:54:19;66.82;;;30.38;;
24145;SDS011;12308;50.948;4.706;2023-04-16T10:56:48;74.65;;;31.38;;
24145;SDS011;12308;50.948;4.706;2023-04-16T10:59:18;68.25;;;31.60;;
24145;SDS011;12308;50.948;4.706;2023-04-16T11:01:55;58.17;;;29.25;;
24145;SDS011;12308;50.948;4.706;2023-04-16T11:12:34;63.08;;;29.50;;
24145;SDS011;12308;50.948;4.706;2023-04-16T11:17:39;62.92;;;29.35;;
24145;SDS011;12308;50.948;4.706;2023-04-16T11:20:14;57.85;;;29.55;;
24145;SDS011;12308;50.948;4.706;2023-04-16T11:22:44;54.60;;;28.98;;
24145;SDS011;12308;50.948;4.706;2023-04-16T11:25:11;60.45;;;28.88;;
24145;SDS011;12308;50.948;4.706;2023-04-16T11:27:37;64.03;;;29.85;;
24145;SDS011;12308;50.948;4.706;2023-04-16T11:30:03;54.95;;;29.80;;
24145;SDS011;12308;50.948;4.706;2023-04-16T11:32:31;63.45;;;28.90;;
24145;SDS011;12308;50.948;4.706;2023-04-16T11:34:58;63.80;;;29.05;;
24145;SDS011;12308;50.948;4.706;2023-04-16T11:37:31;65.45;;;32.05;;
24145;SDS011;12308;50.948;4.706;2023-04-16T11:39:58;67.70;;;32.97;;
24145;SDS011;12308;50.948;4.706;2023-04-16T11:42:24;61.42;;;32.58;;
24145;SDS011;12308;50.948;4.706;2023-04-16T11:44:51;60.28;;;30.17;;
24145;SDS011;12308;50.948;4.706;2023-04-16T11:47:18;57.92;;;31.75;;
24145;SDS011;12308;50.948;4.706;2023-04-16T11:49:44;67.13;;;32.53;;
24145;SDS011;12308;50.948;4.706;2023-04-16T11:52:09;56.63;;;30.15;;
24145;SDS011;12308;50.948;4.706;2023-04-16T11:54:35;67.03;;;33.38;;
24145;SDS011;12308;50.948;4.706;2023-04-16T11:57:01;64.00;;;33.53;;
24145;SDS011;12308;50.948;4.706;2023-04-16T11:59:28;65.78;;;31.88;;
24145;SDS011;12308;50.948;4.706;2023-04-16T12:01:55;69.15;;;33.47;;
24145;SDS011;12308;50.948;4.706;2023-04-16T12:04:21;66.22;;;32.45;;
24145;SDS011;12308;50.948;4.706;2023-04-16T12:07:10;62.83;;;34.22;;
24145;SDS011;12308;50.948;4.706;2023-04-16T12:09:36;64.97;;;32.83;;
24145;SDS011;12308;50.948;4.706;2023-04-16T12:12:03;66.35;;;32.33;;
24145;SDS011;12308;50.948;4.706;2023-04-16T12:14:29;64.03;;;33.42;;
24145;SDS011;12308;50.948;4.706;2023-04-16T12:16:56;55.72;;;31.58;;
24145;SDS011;12308;50.948;4.706;2023-04-16T12:19:51;57.55;;;32.47;;
24145;SDS011;12308;50.948;4.706;2023-04-16T12:22:40;61.45;;;33.20;;
24145;SDS011;12308;50.948;4.706;2023-04-16T12:25:10;62.63;;;31.98;;
24145;SDS011;12308;50.948;4.706;2023-04-16T12:27:41;65.53;;;34.50;;
24145;SDS011;12308;50.948;4.706;2023-04-16T12:30:12;62.95;;;34.10;;
24145;SDS011;12308;50.948;4.706;2023-04-16T12:32:39;60.00;;;33.58;;
24145;SDS011;12308;50.948;4.706;2023-04-16T12:35:05;63.13;;;34.25;;
24145;SDS011;12308;50.948;4.706;2023-04-16T12:37:32;70.45;;;35.85;;
24145;SDS011;12308;50.948;4.706;2023-04-16T12:39:57;63.80;;;34.22;;
24145;SDS011;12308;50.948;4.706;2023-04-16T12:42:23;64.22;;;34.25;;
24145;SDS011;12308;50.948;4.706;2023-04-16T12:44:49;59.17;;;33.28;;
24145;SDS011;12308;50.948;4.706;2023-04-16T12:47:14;76.53;;;34.47;;
24145;SDS011;12308;50.948;4.706;2023-04-16T12:49:40;60.03;;;33.40;;
24145;SDS011;12308;50.948;4.706;2023-04-16T12:52:06;66.88;;;35.28;;
24145;SDS011;12308;50.948;4.706;2023-04-16T12:54:32;62.83;;;33.75;;
24145;SDS011;12308;50.948;4.706;2023-04-16T12:56:57;60.08;;;33.08;;
24145;SDS011;12308;50.948;4.706;2023-04-16T12:59:23;73.32;;;35.67;;
24145;SDS011;12308;50.948;4.706;2023-04-16T13:01:49;65.55;;;34.15;;
24145;SDS011;12308;50.948;4.706;2023-04-16T13:04:15;65.38;;;35.08;;
24145;SDS011;12308;50.948;4.706;2023-04-16T13:06:41;64.15;;;35.92;;
24145;SDS011;12308;50.948;4.706;2023-04-16T13:09:07;68.30;;;36.28;;
24145;SDS011;12308;50.948;4.706;2023-04-16T13:11:33;70.72;;;35.70;;
24145;SDS011;12308;50.948;4.706;2023-04-16T13:13:58;73.78;;;34.55;;
24145;SDS011;12308;50.948;4.706;2023-04-16T13:16:24;67.93;;;35.30;;
24145;SDS011;12308;50.948;4.706;2023-04-16T13:18:50;69.55;;;36.03;;
24145;SDS011;12308;50.948;4.706;2023-04-16T13:21:15;60.95;;;34.22;;
24145;SDS011;12308;50.948;4.706;2023-04-16T13:23:41;79.15;;;37.55;;
24145;SDS011;12308;50.948;4.706;2023-04-16T13:26:07;68.25;;;35.10;;
24145;SDS011;12308;50.948;4.706;2023-04-16T13:28:32;62.90;;;34.67;;
24145;SDS011;12308;50.948;4.706;2023-04-16T13:30:58;72.47;;;35.00;;
24145;SDS011;12308;50.948;4.706;2023-04-16T13:33:24;67.22;;;35.50;;
24145;SDS011;12308;50.948;4.706;2023-04-16T13:35:50;69.50;;;34.13;;
24145;SDS011;12308;50.948;4.706;2023-04-16T13:38:16;61.00;;;34.08;;
24145;SDS011;12308;50.948;4.706;2023-04-16T13:40:42;66.07;;;34.67;;
24145;SDS011;12308;50.948;4.706;2023-04-16T13:43:08;68.78;;;34.67;;
24145;SDS011;12308;50.948;4.706;2023-04-16T13:45:34;72.32;;;33.03;;
24145;SDS011;12308;50.948;4.706;2023-04-16T13:48:01;66.50;;;35.42;;
24145;SDS011;12308;50.948;4.706;2023-04-16T13:50:27;67.75;;;33.58;;
24145;SDS011;12308;50.948;4.706;2023-04-16T13:52:52;58.03;;;32.58;;
24145;SDS011;12308;50.948;4.706;2023-04-16T13:55:18;65.00;;;34.28;;
24145;SDS011;12308;50.948;4.706;2023-04-16T13:57:46;65.10;;;35.72;;
24145;SDS011;12308;50.948;4.706;2023-04-16T14:00:13;62.72;;;35.78;;
24145;SDS011;12308;50.948;4.706;2023-04-16T14:02:40;62.15;;;34.13;;
24145;SDS011;12308;50.948;4.706;2023-04-16T14:05:06;68.13;;;34.83;;
24145;SDS011;12308;50.948;4.706;2023-04-16T14:07:32;59.72;;;33.20;;
24145;SDS011;12308;50.948;4.706;2023-04-16T14:09:58;59.58;;;34.53;;
24145;SDS011;12308;50.948;4.706;2023-04-16T14:12:24;63.58;;;33.20;;
24145;SDS011;12308;50.948;4.706;2023-04-16T14:14:51;64.20;;;34.55;;
24145;SDS011;12308;50.948;4.706;2023-04-16T14:17:17;61.78;;;32.45;;
24145;SDS011;12308;50.948;4.706;2023-04-16T14:19:43;64.82;;;34.38;;
24145;SDS011;12308;50.948;4.706;2023-04-16T14:22:08;65.72;;;36.65;;
24145;SDS011;12308;50.948;4.706;2023-04-16T14:24:34;68.88;;;37.25;;
24145;SDS011;12308;50.948;4.706;2023-04-16T14:27:00;71.22;;;37.05;;
24145;SDS011;12308;50.948;4.706;2023-04-16T14:29:26;62.42;;;37.03;;
24145;SDS011;12308;50.948;4.706;2023-04-16T14:31:52;59.03;;;36.28;;